Time;durP1;ratioP1;P1;durP2;ratioP2;P2;SDS_P1;SDS_P2;PMS_P1;PMS_P2;Temp;Humidity;BMP_temperature;BMP_pressure;BME280_temperature;BME280_humidity;BME280_pressure;Samples;Min_cycle;Max_cycle;Signal;HPM_P1;HPM_P2
2023/09/18 00:00:21;;;;;;;;;;;16.90;99.90;;;;;;4997986;28;19925;-43
2023/09/18 00:02:49;;;;;;;;;;;16.90;99.90;;;;;;4997292;28;19922;-43
2023/09/18 00:05:15;;;;;;;;;;;17.00;99.90;;;;;;4997310;28;20347;-43
2023/09/18 00:07:44;;;;;;;;;;;17.00;99.90;;;;;;4979977;28;20100;-43
2023/09/18 00:10:10;;;;;;;;;;;16.90;99.90;;;;;;4997253;28;19922;-42
2023/09/18 00:12:36;;;;;;;;;;;16.90;99.90;;;;;;4997307;28;19922;-43
2023/09/18 00:15:01;;;;;;;;;;;16.90;99.90;;;;;;4996904;28;20433;-44
2023/09/18 00:17:27;;;;;;;;;;;16.90;99.90;;;;;;4996992;28;19922;-43
2023/09/18 00:19:53;;;;;;;;;;;16.90;99.90;;;;;;4997008;28;19972;-43
2023/09/18 00:22:19;;;;;;;;;;;16.90;99.90;;;;;;4997140;28;19984;-42
2023/09/18 00:24:45;;;;;;;;;;;16.90;99.90;;;;;;4996675;28;20387;-42
2023/09/18 00:27:13;;;;;;;;;;;16.90;99.90;;;;;;4997347;28;19964;-43
2023/09/18 00:29:39;;;;;;;;;;;16.90;99.90;;;;;;4996925;28;19922;-43
2023/09/18 00:32:06;;;;;;;;;;;16.90;99.90;;;;;;4997012;28;20330;-43
2023/09/18 00:34:34;;;;;;;;;;;16.90;99.90;;;;;;4996753;28;20302;-42
2023/09/18 00:37:00;;;;;;;;;;;16.90;99.90;;;;;;4979201;28;19972;-43
2023/09/18 00:39:26;;;;;;;;;;;17.00;99.90;;;;;;4996668;28;19921;-43
2023/09/18 00:41:53;;;;;;;;;;;17.00;99.90;;;;;;4996613;28;19980;-44
2023/09/18 00:44:20;;;;;;;;;;;17.00;99.90;;;;;;4996691;28;20371;-43
2023/09/18 00:46:45;;;;;;;;;;;17.00;99.90;;;;;;5011676;28;19976;-42
2023/09/18 00:49:12;;;;;;;;;;;17.00;99.90;;;;;;4996542;28;19925;-43
2023/09/18 00:51:38;;;;;;;;;;;17.10;99.90;;;;;;4996295;28;19928;-43
2023/09/18 00:54:03;;;;;;;;;;;17.10;99.90;;;;;;4996451;28;19922;-43
2023/09/18 00:56:29;;;;;;;;;;;17.10;99.90;;;;;;4978840;28;19922;-42
2023/09/18 00:58:54;;;;;;;;;;;17.10;99.90;;;;;;4996356;28;19929;-43
2023/09/18 01:01:23;;;;;;;;;;;17.10;99.90;;;;;;5011523;28;19922;-43
2023/09/18 01:03:53;;;;;;;;;;;17.20;99.90;;;;;;4996318;28;19922;-42
2023/09/18 01:06:20;;;;;;;;;;;17.20;99.90;;;;;;4978932;28;19922;-42
2023/09/18 01:08:47;;;;;;;;;;;17.10;99.90;;;;;;4996160;28;20268;-43
2023/09/18 01:11:19;;;;;;;;;;;17.20;99.90;;;;;;4996374;28;19965;-42
2023/09/18 01:14:11;;;;;;;;;;;17.20;99.90;;;;;;4996153;28;19928;-43
2023/09/18 01:16:58;;;;;;;;;;;17.20;99.90;;;;;;4972828;28;19921;-43
2023/09/18 01:19:40;;;;;;;;;;;17.20;99.90;;;;;;4995876;28;19922;-44
2023/09/18 01:22:06;;;;;;;;;;;17.20;99.90;;;;;;4996115;28;20287;-43
2023/09/18 01:24:36;;;;;;;;;;;17.20;99.90;;;;;;4995776;28;19925;-42
2023/09/18 01:27:03;;;;;;;;;;;17.20;99.90;;;;;;4995550;28;19925;-42
2023/09/18 01:29:29;;;;;;;;;;;17.10;99.90;;;;;;4995786;28;19921;-42
2023/09/18 01:31:54;;;;;;;;;;;17.10;99.90;;;;;;4995637;28;19925;-42
2023/09/18 01:34:21;;;;;;;;;;;17.10;99.90;;;;;;4995810;28;19922;-42
2023/09/18 01:36:47;;;;;;;;;;;17.10;99.90;;;;;;4995488;28;20015;-42
2023/09/18 01:39:13;;;;;;;;;;;17.10;99.90;;;;;;4995589;28;20350;-42
2023/09/18 01:41:39;;;;;;;;;;;17.10;99.90;;;;;;4995528;28;20012;-43
2023/09/18 01:44:05;;;;;;;;;;;17.00;99.90;;;;;;4995556;28;19979;-42
2023/09/18 01:46:32;;;;;;;;;;;17.00;99.90;;;;;;4995500;28;19922;-42
2023/09/18 01:48:58;;;;;;;;;;;17.00;99.90;;;;;;4977991;28;19925;-42
2023/09/18 01:51:24;;;;;;;;;;;17.00;99.90;;;;;;4995276;28;19921;-42
2023/09/18 01:53:50;;;;;;;;;;;17.00;99.90;;;;;;5010531;28;19928;-42
2023/09/18 01:56:15;;;;;;;;;;;17.10;99.90;;;;;;4977867;28;20394;-43
2023/09/18 01:58:41;;;;;;;;;;;17.00;99.90;;;;;;4994971;28;19922;-42
2023/09/18 02:01:06;;;;;;;;;;;17.00;99.90;;;;;;4995235;28;19921;-43
2023/09/18 02:03:32;;;;;;;;;;;16.90;99.90;;;;;;4995438;28;19928;-43
2023/09/18 02:05:58;;;;;;;;;;;16.90;99.90;;;;;;4995102;28;20387;-42
2023/09/18 02:08:23;;;;;;;;;;;16.90;99.90;;;;;;4994536;28;20333;-43
2023/09/18 02:10:49;;;;;;;;;;;16.90;99.90;;;;;;4994760;28;19922;-43
2023/09/18 02:13:14;;;;;;;;;;;16.90;99.90;;;;;;5010089;28;19968;-43
2023/09/18 02:15:41;;;;;;;;;;;16.90;99.90;;;;;;5010415;28;19976;-42
2023/09/18 02:18:06;;;;;;;;;;;16.90;99.90;;;;;;4995026;28;19926;-42
2023/09/18 02:20:39;;;;;;;;;;;16.90;99.90;;;;;;4994789;28;20020;-42
2023/09/18 02:23:05;;;;;;;;;;;16.80;99.90;;;;;;4995025;28;19922;-42
2023/09/18 02:25:30;;;;;;;;;;;16.80;99.90;;;;;;4994820;28;20290;-42
2023/09/18 02:27:56;;;;;;;;;;;16.80;99.90;;;;;;4994894;28;20367;-42
2023/09/18 02:30:21;;;;;;;;;;;16.80;99.90;;;;;;4994784;28;20366;-43
2023/09/18 02:32:47;;;;;;;;;;;16.80;99.90;;;;;;4994927;28;20015;-42
2023/09/18 02:35:13;;;;;;;;;;;16.80;99.90;;;;;;4994910;28;19922;-42
2023/09/18 02:37:38;;;;;;;;;;;16.80;99.90;;;;;;4994604;28;19922;-42
2023/09/18 02:40:05;;;;;;;;;;;16.90;99.90;;;;;;4994530;28;19976;-42
2023/09/18 02:42:30;;;;;;;;;;;16.80;99.90;;;;;;4977569;28;20355;-43
2023/09/18 02:44:56;;;;;;;;;;;16.80;99.90;;;;;;5010027;28;19922;-42
2023/09/18 02:47:21;;;;;;;;;;;16.80;99.90;;;;;;4994790;28;19925;-42
2023/09/18 02:49:47;;;;;;;;;;;16.80;99.90;;;;;;4994401;28;19950;-43
2023/09/18 02:52:12;;;;;;;;;;;16.80;99.90;;;;;;4994416;28;19977;-43
2023/09/18 02:54:38;;;;;;;;;;;16.80;99.90;;;;;;4994265;28;20037;-43
2023/09/18 02:57:04;;;;;;;;;;;16.80;99.90;;;;;;4994251;28;19933;-42
2023/09/18 02:59:29;;;;;;;;;;;16.80;99.90;;;;;;5009885;28;19922;-42
2023/09/18 03:01:55;;;;;;;;;;;16.80;99.90;;;;;;5009875;28;19922;-43
2023/09/18 03:04:21;;;;;;;;;;;16.80;99.90;;;;;;4994445;28;20298;-42
2023/09/18 03:06:46;;;;;;;;;;;16.80;99.90;;;;;;4994274;28;19922;-42
2023/09/18 03:09:12;;;;;;;;;;;16.80;99.90;;;;;;5009393;28;19991;-43
2023/09/18 03:11:37;;;;;;;;;;;16.80;99.90;;;;;;4994124;28;19926;-43
2023/09/18 03:14:03;;;;;;;;;;;16.80;99.90;;;;;;4994282;28;19921;-42
2023/09/18 03:16:31;;;;;;;;;;;16.80;99.90;;;;;;5008870;28;20012;-43
2023/09/18 03:18:57;;;;;;;;;;;16.90;99.90;;;;;;4996601;28;20016;-42
2023/09/18 03:21:22;;;;;;;;;;;16.90;99.90;;;;;;4998089;28;19960;-42
2023/09/18 03:23:48;;;;;;;;;;;16.90;99.90;;;;;;4997826;28;19929;-43
2023/09/18 03:26:13;;;;;;;;;;;16.90;99.90;;;;;;4997800;28;20430;-42
2023/09/18 03:28:39;;;;;;;;;;;17.00;99.90;;;;;;4997782;28;20441;-42
2023/09/18 03:31:06;;;;;;;;;;;17.00;99.90;;;;;;4997733;28;20290;-43
2023/09/18 03:33:32;;;;;;;;;;;17.00;99.90;;;;;;4997831;28;19926;-42
2023/09/18 03:35:58;;;;;;;;;;;17.00;99.90;;;;;;4997684;28;19984;-42
2023/09/18 03:38:24;;;;;;;;;;;17.00;99.90;;;;;;4997688;28;19922;-43
2023/09/18 03:40:50;;;;;;;;;;;17.00;99.90;;;;;;4998377;28;19953;-42
2023/09/18 03:43:16;;;;;;;;;;;17.00;99.90;;;;;;4997747;28;19922;-43
2023/09/18 03:45:41;;;;;;;;;;;17.00;99.90;;;;;;4998041;28;19995;-42
2023/09/18 03:48:07;;;;;;;;;;;17.00;99.90;;;;;;4997743;28;20330;-43
2023/09/18 03:50:32;;;;;;;;;;;17.00;99.90;;;;;;5013197;28;19944;-42
2023/09/18 03:52:58;;;;;;;;;;;17.00;99.90;;;;;;4997407;28;19972;-42
2023/09/18 03:55:24;;;;;;;;;;;17.00;99.90;;;;;;4997345;28;19922;-42
2023/09/18 03:57:52;;;;;;;;;;;17.00;99.90;;;;;;4997795;28;19984;-42
2023/09/18 04:00:17;;;;;;;;;;;17.00;99.90;;;;;;4997192;28;20402;-42
2023/09/18 04:02:43;;;;;;;;;;;17.00;99.90;;;;;;4997288;28;20021;-42
2023/09/18 04:05:09;;;;;;;;;;;17.00;99.90;;;;;;4997313;28;19928;-42
2023/09/18 04:07:35;;;;;;;;;;;16.90;99.90;;;;;;4997128;28;19922;-42
2023/09/18 04:10:00;;;;;;;;;;;16.90;99.90;;;;;;4997073;28;20452;-42
2023/09/18 04:12:26;;;;;;;;;;;16.90;99.90;;;;;;5012808;28;19921;-43
2023/09/18 04:14:52;;;;;;;;;;;16.90;99.90;;;;;;4979827;28;19922;-42
2023/09/18 04:17:17;;;;;;;;;;;16.90;99.90;;;;;;4997034;28;19928;-42
2023/09/18 04:19:43;;;;;;;;;;;16.90;99.90;;;;;;4997035;28;19922;-42
2023/09/18 04:22:09;;;;;;;;;;;16.90;99.90;;;;;;4997018;28;19953;-43
2023/09/18 04:24:34;;;;;;;;;;;16.90;99.90;;;;;;4996921;28;20334;-42
2023/09/18 04:27:00;;;;;;;;;;;17.00;99.90;;;;;;4996929;28;19922;-42
2023/09/18 04:29:26;;;;;;;;;;;17.00;99.90;;;;;;4996452;28;19922;-42
2023/09/18 04:31:53;;;;;;;;;;;17.00;99.90;;;;;;4996745;28;19926;-43
2023/09/18 04:34:19;;;;;;;;;;;17.00;99.90;;;;;;4996674;28;20004;-42
2023/09/18 04:36:45;;;;;;;;;;;17.00;99.90;;;;;;4996716;28;20017;-43
2023/09/18 04:39:10;;;;;;;;;;;17.00;99.90;;;;;;4979330;28;19964;-43
2023/09/18 04:41:36;;;;;;;;;;;17.00;99.90;;;;;;4996763;28;19928;-44
2023/09/18 04:44:02;;;;;;;;;;;17.00;99.90;;;;;;4996670;28;20290;-42
2023/09/18 04:46:29;;;;;;;;;;;17.00;99.90;;;;;;4996485;28;19968;-42
2023/09/18 04:48:55;;;;;;;;;;;17.00;99.90;;;;;;4996517;28;19921;-42
2023/09/18 04:51:21;;;;;;;;;;;17.00;99.90;;;;;;4979179;28;20275;-43
2023/09/18 04:53:46;;;;;;;;;;;17.00;99.90;;;;;;4996236;28;19925;-42
2023/09/18 04:56:12;;;;;;;;;;;17.00;99.90;;;;;;4996330;28;19922;-43
2023/09/18 04:58:38;;;;;;;;;;;17.10;99.90;;;;;;5011981;28;19922;-42
2023/09/18 05:01:06;;;;;;;;;;;17.10;99.90;;;;;;4996322;28;20286;-42
2023/09/18 05:03:35;;;;;;;;;;;17.10;99.90;;;;;;4996201;28;19921;-43
2023/09/18 05:06:01;;;;;;;;;;;17.10;99.90;;;;;;4996028;28;20370;-43
2023/09/18 05:08:26;;;;;;;;;;;17.10;99.90;;;;;;5011520;28;19980;-43
2023/09/18 05:10:53;;;;;;;;;;;17.10;99.90;;;;;;4996132;28;19926;-43
2023/09/18 05:13:18;;;;;;;;;;;17.10;99.90;;;;;;4996004;28;19922;-43
2023/09/18 05:15:44;;;;;;;;;;;17.10;99.90;;;;;;4995818;28;19928;-43
2023/09/18 05:18:09;;;;;;;;;;;17.10;99.90;;;;;;4995846;28;19921;-43
2023/09/18 05:20:35;;;;;;;;;;;17.10;99.90;;;;;;4996001;28;19921;-44
2023/09/18 05:23:04;;;;;;;;;;;17.10;99.90;;;;;;4995715;28;20381;-43
2023/09/18 05:25:31;;;;;;;;;;;17.10;99.90;;;;;;4996473;28;20333;-43
2023/09/18 05:27:58;;;;;;;;;;;17.10;99.90;;;;;;4996159;28;19922;-43
2023/09/18 05:30:27;;;;;;;;;;;17.10;99.90;;;;;;4995895;28;19929;-43
2023/09/18 05:32:53;;;;;;;;;;;17.10;99.90;;;;;;4995774;28;19925;-44
2023/09/18 05:35:18;;;;;;;;;;;17.20;99.90;;;;;;4995416;28;19928;-43
2023/09/18 05:37:44;;;;;;;;;;;17.20;99.90;;;;;;4995496;28;19922;-43
2023/09/18 05:40:10;;;;;;;;;;;17.20;99.90;;;;;;4995837;28;19928;-43
2023/09/18 05:42:37;;;;;;;;;;;17.20;99.90;;;;;;4994643;28;20389;-43
2023/09/18 05:45:04;;;;;;;;;;;17.20;99.90;;;;;;4995521;28;19928;-43
2023/09/18 05:47:33;;;;;;;;;;;17.20;99.90;;;;;;4995530;28;19985;-43
2023/09/18 05:49:59;;;;;;;;;;;17.20;99.90;;;;;;4995128;28;20378;-43
2023/09/18 05:52:25;;;;;;;;;;;17.20;99.90;;;;;;4995523;28;20024;-43
2023/09/18 05:54:50;;;;;;;;;;;17.30;99.90;;;;;;4995616;28;20012;-43
2023/09/18 05:57:17;;;;;;;;;;;17.30;99.90;;;;;;4995154;28;20012;-43
2023/09/18 05:59:44;;;;;;;;;;;17.30;99.90;;;;;;4995167;28;19922;-43
2023/09/18 06:02:10;;;;;;;;;;;17.30;99.90;;;;;;4995165;28;19944;-43
2023/09/18 06:04:36;;;;;;;;;;;17.30;99.90;;;;;;4995037;28;19981;-43
2023/09/18 06:07:05;;;;;;;;;;;17.40;99.90;;;;;;4995248;28;19965;-43
2023/09/18 06:09:30;;;;;;;;;;;17.40;99.90;;;;;;4995171;28;19921;-43
2023/09/18 06:11:56;;;;;;;;;;;17.50;99.90;;;;;;4995097;28;20016;-43
2023/09/18 06:14:22;;;;;;;;;;;17.50;99.90;;;;;;4994952;28;20107;-43
2023/09/18 06:16:48;;;;;;;;;;;17.50;99.90;;;;;;4994569;28;19922;-43
2023/09/18 06:19:14;;;;;;;;;;;17.50;99.90;;;;;;4994753;28;19922;-44
2023/09/18 06:21:40;;;;;;;;;;;17.60;99.90;;;;;;4993936;28;19922;-43
2023/09/18 06:24:06;;;;;;;;;;;17.60;99.90;;;;;;4994666;28;19944;-44
2023/09/18 06:26:31;;;;;;;;;;;17.60;99.90;;;;;;4994864;28;19925;-43
2023/09/18 06:28:57;;;;;;;;;;;17.60;99.90;;;;;;4994686;28;19928;-44
2023/09/18 06:31:23;;;;;;;;;;;17.70;99.90;;;;;;4994747;28;20016;-44
2023/09/18 06:33:49;;;;;;;;;;;17.70;99.90;;;;;;4994519;28;20293;-43
2023/09/18 06:36:14;;;;;;;;;;;17.70;99.90;;;;;;4994873;28;19928;-43
2023/09/18 06:38:40;;;;;;;;;;;17.80;99.90;;;;;;4994783;28;20260;-44
2023/09/18 06:41:05;;;;;;;;;;;17.80;99.90;;;;;;4994627;28;19928;-43
2023/09/18 06:43:31;;;;;;;;;;;17.90;99.90;;;;;;4994617;28;19926;-43
2023/09/18 06:45:57;;;;;;;;;;;17.90;99.90;;;;;;4994520;28;19921;-43
2023/09/18 06:48:23;;;;;;;;;;;17.90;99.90;;;;;;4994521;28;19922;-43
2023/09/18 06:50:49;;;;;;;;;;;17.90;99.90;;;;;;4994628;28;19972;-43
2023/09/18 06:53:15;;;;;;;;;;;17.90;99.90;;;;;;4995744;28;19976;-43
2023/09/18 06:55:41;;;;;;;;;;;18.00;99.90;;;;;;4998816;28;19965;-43
2023/09/18 06:58:07;;;;;;;;;;;18.00;99.90;;;;;;4998411;28;20390;-43
2023/09/18 07:00:32;;;;;;;;;;;18.00;99.90;;;;;;4998532;28;19922;-43
2023/09/18 07:02:58;;;;;;;;;;;18.00;99.90;;;;;;4998390;28;20283;-43
2023/09/18 07:05:24;;;;;;;;;;;18.00;99.90;;;;;;4965465;28;19922;-47
2023/09/18 07:07:50;;;;;;;;;;;18.00;99.90;;;;;;4998360;28;19928;-45
2023/09/18 07:10:15;;;;;;;;;;;18.00;99.90;;;;;;4998480;28;19921;-41
2023/09/18 07:12:41;;;;;;;;;;;18.00;99.90;;;;;;4998168;28;20040;-40
2023/09/18 07:15:07;;;;;;;;;;;18.10;99.90;;;;;;4998014;28;19969;-43
2023/09/18 07:17:32;;;;;;;;;;;18.10;99.90;;;;;;4998201;28;19922;-42
2023/09/18 07:19:59;;;;;;;;;;;18.10;99.90;;;;;;4998327;28;19929;-42
2023/09/18 07:22:24;;;;;;;;;;;18.10;99.90;;;;;;4998281;28;19922;-42
2023/09/18 07:24:50;;;;;;;;;;;18.00;99.90;;;;;;4998399;28;19964;-42
2023/09/18 07:27:15;;;;;;;;;;;18.00;99.90;;;;;;4998274;28;19925;-41
2023/09/18 07:29:41;;;;;;;;;;;18.00;99.90;;;;;;4998142;28;19926;-42
2023/09/18 07:32:07;;;;;;;;;;;18.00;99.90;;;;;;4997802;28;19968;-41
2023/09/18 07:34:33;;;;;;;;;;;18.00;99.90;;;;;;4997783;28;19928;-41
2023/09/18 07:36:58;;;;;;;;;;;18.00;99.90;;;;;;4997942;28;19921;-41
2023/09/18 07:39:24;;;;;;;;;;;18.00;99.90;;;;;;4997999;28;19921;-41
2023/09/18 07:41:50;;;;;;;;;;;18.00;99.90;;;;;;4998109;28;19968;-41
2023/09/18 07:44:19;;;;;;;;;;;18.10;99.90;;;;;;4997601;28;19922;-42
2023/09/18 07:46:44;;;;;;;;;;;18.10;99.90;;;;;;4997520;28;20416;-41
2023/09/18 07:49:10;;;;;;;;;;;18.10;99.90;;;;;;4998052;28;19921;-41
2023/09/18 07:51:35;;;;;;;;;;;18.10;99.90;;;;;;4997727;28;19964;-41
2023/09/18 07:54:01;;;;;;;;;;;18.10;99.90;;;;;;4997666;28;19926;-41
2023/09/18 07:56:27;;;;;;;;;;;18.10;99.90;;;;;;4997496;28;20425;-41
2023/09/18 07:58:52;;;;;;;;;;;18.10;99.90;;;;;;4997369;28;20009;-41
2023/09/18 08:01:22;;;;;;;;;;;18.10;99.90;;;;;;4997502;28;19922;-41
2023/09/18 08:03:48;;;;;;;;;;;18.20;99.90;;;;;;4997595;28;19929;-42
2023/09/18 08:06:15;;;;;;;;;;;18.10;99.90;;;;;;4996569;28;19921;-41
2023/09/18 08:08:41;;;;;;;;;;;18.10;99.90;;;;;;4997603;28;19922;-41
2023/09/18 08:11:08;;;;;;;;;;;18.20;99.90;;;;;;4997294;28;19929;-42
2023/09/18 08:13:34;;;;;;;;;;;18.20;99.90;;;;;;4980126;28;19929;-41
2023/09/18 08:15:59;;;;;;;;;;;18.10;99.90;;;;;;4990642;28;19922;-41
2023/09/18 08:18:26;;;;;;;;;;;18.20;99.90;;;;;;4997201;28;19922;-41
2023/09/18 08:20:53;;;;;;;;;;;18.20;99.90;;;;;;4997104;28;19933;-41
2023/09/18 08:23:18;;;;;;;;;;;18.20;99.90;;;;;;4997076;28;19921;-41
2023/09/18 08:25:44;;;;;;;;;;;18.20;99.90;;;;;;4996961;28;19921;-41
2023/09/18 08:28:09;;;;;;;;;;;18.20;99.90;;;;;;4996920;28;20375;-41
2023/09/18 08:30:36;;;;;;;;;;;18.20;99.90;;;;;;4996780;28;19921;-41
2023/09/18 08:33:02;;;;;;;;;;;18.20;99.90;;;;;;4997319;28;19976;-41
2023/09/18 08:35:29;;;;;;;;;;;18.20;99.90;;;;;;4979816;28;20319;-41
2023/09/18 08:37:56;;;;;;;;;;;18.20;99.90;;;;;;4996755;28;19921;-41
2023/09/18 08:40:22;;;;;;;;;;;18.20;99.90;;;;;;4996803;28;19942;-41
2023/09/18 08:42:49;;;;;;;;;;;18.20;99.90;;;;;;4996652;28;19922;-42
2023/09/18 08:45:35;;;;;;;;;;;18.20;99.90;;;;;;4996658;28;19921;-41
2023/09/18 08:48:01;;;;;;;;;;;18.20;99.90;;;;;;4996178;28;19922;-41
2023/09/18 08:50:27;;;;;;;;;;;18.20;99.90;;;;;;4996673;28;20386;-40
2023/09/18 08:52:53;;;;;;;;;;;18.20;99.90;;;;;;4996463;28;20383;-41
2023/09/18 08:55:19;;;;;;;;;;;18.20;99.90;;;;;;4996334;28;19922;-41
2023/09/18 08:57:45;;;;;;;;;;;18.20;99.90;;;;;;4996321;28;19922;-42
2023/09/18 09:00:16;;;;;;;;;;;18.20;99.90;;;;;;4996476;28;19921;-41
2023/09/18 09:02:43;;;;;;;;;;;18.30;99.90;;;;;;4979322;28;19932;-42
2023/09/18 09:05:09;;;;;;;;;;;18.30;99.90;;;;;;4996425;28;19985;-41
2023/09/18 09:07:34;;;;;;;;;;;18.30;99.90;;;;;;4996177;28;19968;-41
2023/09/18 09:10:00;;;;;;;;;;;18.30;99.90;;;;;;4996188;28;20330;-43
2023/09/18 09:12:44;;;;;;;;;;;18.30;99.90;;;;;;4995906;28;19922;-41
2023/09/18 09:15:10;;;;;;;;;;;18.40;99.90;;;;;;4996176;28;20303;-41
2023/09/18 09:17:36;;;;;;;;;;;18.40;99.90;;;;;;4978620;28;19925;-41
2023/09/18 09:20:09;;;;;;;;;;;18.40;99.90;;;;;;4996048;28;20366;-41
2023/09/18 09:22:34;;;;;;;;;;;18.40;99.90;;;;;;4995909;28;19922;-42
2023/09/18 09:25:00;;;;;;;;;;;18.50;99.90;;;;;;4995604;28;19992;-42
2023/09/18 09:27:25;;;;;;;;;;;18.50;99.90;;;;;;4995868;28;19921;-41
2023/09/18 09:30:00;;;;;;;;;;;18.50;99.90;;;;;;4996055;28;19925;-43
2023/09/18 09:32:29;;;;;;;;;;;18.50;99.90;;;;;;4995862;28;19976;-42
2023/09/18 09:34:58;;;;;;;;;;;18.50;99.90;;;;;;4995568;28;19922;-42
2023/09/18 09:37:30;;;;;;;;;;;18.50;99.90;;;;;;4995407;28;19922;-42
2023/09/18 09:39:56;;;;;;;;;;;18.50;99.90;;;;;;4995608;28;19946;-41
2023/09/18 09:42:24;;;;;;;;;;;18.60;99.90;;;;;;4995619;28;20395;-42
2023/09/18 09:45:11;;;;;;;;;;;18.60;99.90;;;;;;4978482;28;20425;-42
2023/09/18 09:47:37;;;;;;;;;;;18.60;99.90;;;;;;4995590;28;20351;-43
2023/09/18 09:50:16;;;;;;;;;;;18.60;99.90;;;;;;4995157;28;20008;-43
2023/09/18 09:52:47;;;;;;;;;;;18.70;99.90;;;;;;4995369;28;19926;-42
2023/09/18 09:55:20;;;;;;;;;;;18.80;99.90;;;;;;4995533;28;20035;-41
2023/09/18 09:57:49;;;;;;;;;;;18.80;99.90;;;;;;4995161;28;19921;-43
2023/09/18 10:00:30;;;;;;;;;;;18.80;99.90;;;;;;4995097;28;20375;-42
2023/09/18 10:02:57;;;;;;;;;;;18.80;99.90;;;;;;4995905;28;19922;-42
2023/09/18 10:05:24;;;;;;;;;;;18.90;99.90;;;;;;4995186;28;19922;-42
2023/09/18 10:07:50;;;;;;;;;;;18.90;99.90;;;;;;4995169;28;19921;-43
2023/09/18 10:10:16;;;;;;;;;;;18.90;99.90;;;;;;4995214;28;19921;-42
2023/09/18 10:12:43;;;;;;;;;;;19.00;99.90;;;;;;4994934;28;20447;-42
2023/09/18 10:15:11;;;;;;;;;;;19.00;99.90;;;;;;4995015;28;19922;-41
2023/09/18 10:17:40;;;;;;;;;;;19.00;99.90;;;;;;4994590;28;19929;-42
2023/09/18 10:20:19;;;;;;;;;;;19.10;99.90;;;;;;4994930;28;19921;-43
2023/09/18 10:22:46;;;;;;;;;;;19.10;99.90;;;;;;4994893;28;20298;-42
2023/09/18 10:25:18;;;;;;;;;;;19.20;99.90;;;;;;4994690;28;19932;-43
2023/09/18 10:27:49;;;;;;;;;;;19.20;99.90;;;;;;4994046;28;19977;-42
2023/09/18 10:30:18;;;;;;;;;;;19.30;99.90;;;;;;4977984;28;19951;-41
2023/09/18 10:32:48;;;;;;;;;;;19.30;99.90;;;;;;4994793;28;20012;-43
2023/09/18 10:35:13;;;;;;;;;;;19.40;99.90;;;;;;4994671;28;20016;-42
2023/09/18 10:37:41;;;;;;;;;;;19.40;99.90;;;;;;4994458;28;20020;-42
2023/09/18 10:40:08;;;;;;;;;;;19.50;99.90;;;;;;4994587;28;19921;-42
2023/09/18 10:42:34;;;;;;;;;;;19.60;99.90;;;;;;4994657;28;19922;-42
2023/09/18 10:45:00;;;;;;;;;;;19.70;99.90;;;;;;4994867;28;19926;-42
2023/09/18 10:47:26;;;;;;;;;;;19.70;99.90;;;;;;4994645;28;19921;-42
2023/09/18 10:49:52;;;;;;;;;;;19.80;99.90;;;;;;4994464;28;19925;-42
2023/09/18 10:52:18;;;;;;;;;;;19.80;99.90;;;;;;4994499;28;19922;-41
2023/09/18 10:54:44;;;;;;;;;;;19.80;99.90;;;;;;4994277;28;19926;-41
2023/09/18 10:57:09;;;;;;;;;;;19.90;99.90;;;;;;4994474;28;19922;-41
2023/09/18 10:59:43;;;;;;;;;;;19.90;99.90;;;;;;4994756;28;19929;-41
2023/09/18 11:02:08;;;;;;;;;;;19.90;99.90;;;;;;4994495;28;19921;-43
2023/09/18 11:04:36;;;;;;;;;;;20.00;99.90;;;;;;4994268;28;19929;-42
2023/09/18 11:07:03;;;;;;;;;;;20.10;99.90;;;;;;4994247;28;20023;-42
2023/09/18 11:09:39;;;;;;;;;;;20.20;99.90;;;;;;4994509;28;20379;-41
2023/09/18 11:12:05;;;;;;;;;;;20.20;99.90;;;;;;4994711;28;19926;-41
2023/09/18 11:14:56;;;;;;;;;;;20.40;99.90;;;;;;4994831;28;19922;-42
2023/09/18 11:17:30;;;;;;;;;;;20.50;99.90;;;;;;4976808;28;19925;-41
2023/09/18 11:20:13;;;;;;;;;;;20.40;99.90;;;;;;4994320;28;20020;-42
2023/09/18 11:22:39;;;;;;;;;;;20.50;99.90;;;;;;4994643;28;20005;-42
2023/09/18 11:25:23;;;;;;;;;;;20.70;99.90;;;;;;4994286;28;19926;-42
2023/09/18 11:27:54;;;;;;;;;;;20.80;99.90;;;;;;4994592;28;19922;-43
2023/09/18 11:30:20;;;;;;;;;;;21.00;99.90;;;;;;4994078;28;19977;-43
2023/09/18 11:32:45;;;;;;;;;;;21.10;99.90;;;;;;4977244;28;19930;-42
2023/09/18 11:35:12;;;;;;;;;;;21.00;99.90;;;;;;4994406;28;20413;-43
2023/09/18 11:37:38;;;;;;;;;;;21.00;99.90;;;;;;4994199;28;19988;-42
2023/09/18 11:40:04;;;;;;;;;;;21.00;99.90;;;;;;4996423;28;19965;-43
2023/09/18 11:42:30;;;;;;;;;;;21.10;99.90;;;;;;4997880;28;19968;-43
2023/09/18 11:44:56;;;;;;;;;;;21.20;99.90;;;;;;4997822;28;20291;-42
2023/09/18 11:47:26;;;;;;;;;;;21.40;99.90;;;;;;4997966;28;20345;-42
2023/09/18 11:49:57;;;;;;;;;;;21.50;99.90;;;;;;4997704;28;20508;-44
2023/09/18 11:52:24;;;;;;;;;;;21.70;99.90;;;;;;4997955;28;19968;-42
2023/09/18 11:54:50;;;;;;;;;;;21.80;99.90;;;;;;4997602;28;20350;-43
2023/09/18 11:57:19;;;;;;;;;;;21.80;99.90;;;;;;4997318;28;19922;-42
2023/09/18 11:59:47;;;;;;;;;;;21.70;99.90;;;;;;4997616;28;19921;-42
2023/09/18 12:02:27;;;;;;;;;;;21.60;99.90;;;;;;4997505;28;19921;-42
2023/09/18 12:04:54;;;;;;;;;;;21.40;99.90;;;;;;4997452;28;19980;-43
2023/09/18 12:07:19;;;;;;;;;;;21.30;99.90;;;;;;4997277;28;19929;-42
2023/09/18 12:09:45;;;;;;;;;;;21.20;99.90;;;;;;4997240;28;19921;-43
2023/09/18 12:12:14;;;;;;;;;;;21.10;99.90;;;;;;4997761;28;19977;-42
2023/09/18 12:14:41;;;;;;;;;;;21.10;99.90;;;;;;4997786;28;19922;-42
2023/09/18 12:17:08;;;;;;;;;;;21.00;99.90;;;;;;4992607;28;20394;-42
2023/09/18 12:19:35;;;;;;;;;;;21.00;99.90;;;;;;4997035;28;20008;-42
2023/09/18 12:22:01;;;;;;;;;;;21.10;99.90;;;;;;4997050;28;20291;-42
2023/09/18 12:24:27;;;;;;;;;;;21.30;99.90;;;;;;4996890;28;19928;-43
2023/09/18 12:26:53;;;;;;;;;;;21.40;99.90;;;;;;4997056;28;20338;-43
2023/09/18 12:29:19;;;;;;;;;;;21.50;99.90;;;;;;4980369;28;19925;-43
2023/09/18 12:31:45;;;;;;;;;;;21.70;99.90;;;;;;4997027;28;19922;-42
2023/09/18 12:34:21;;;;;;;;;;;21.60;99.90;;;;;;4997105;28;20264;-42
2023/09/18 12:36:47;;;;;;;;;;;21.70;99.90;;;;;;4996520;28;19925;-43
2023/09/18 12:39:16;;;;;;;;;;;21.70;99.90;;;;;;4996873;28;20327;-43
2023/09/18 12:41:42;;;;;;;;;;;21.70;99.90;;;;;;4996604;28;20389;-42
2023/09/18 12:44:08;;;;;;;;;;;21.60;99.90;;;;;;4979833;28;19926;-43
2023/09/18 12:46:34;;;;;;;;;;;21.50;99.90;;;;;;4996593;28;19922;-43
2023/09/18 12:49:14;;;;;;;;;;;21.40;99.90;;;;;;4996662;28;19928;-43
2023/09/18 12:51:40;;;;;;;;;;;21.30;99.90;;;;;;4996375;28;19926;-43
2023/09/18 12:54:06;;;;;;;;;;;21.20;99.90;;;;;;4996822;28;20071;-43
2023/09/18 12:56:32;;;;;;;;;;;21.20;99.90;;;;;;4996544;28;20354;-43
2023/09/18 12:58:58;;;;;;;;;;;21.20;99.90;;;;;;4996396;28;19972;-44
2023/09/18 13:01:24;;;;;;;;;;;21.10;99.90;;;;;;4996397;28;19921;-43
2023/09/18 13:03:53;;;;;;;;;;;21.10;99.90;;;;;;4996121;28;20367;-43
2023/09/18 13:06:19;;;;;;;;;;;21.10;99.90;;;;;;4996388;28;20391;-43
2023/09/18 13:08:45;;;;;;;;;;;21.10;99.90;;;;;;4996282;28;19969;-43
2023/09/18 13:11:12;;;;;;;;;;;21.20;99.90;;;;;;4996179;28;20374;-43
2023/09/18 13:13:37;;;;;;;;;;;21.30;99.90;;;;;;4996094;28;19922;-42
2023/09/18 13:16:09;;;;;;;;;;;21.50;99.90;;;;;;4995669;28;19928;-42
2023/09/18 13:18:35;;;;;;;;;;;21.70;99.90;;;;;;4996106;28;19921;-44
2023/09/18 13:21:09;;;;;;;;;;;21.80;99.90;;;;;;4996065;28;19949;-43
2023/09/18 13:23:35;;;;;;;;;;;21.90;99.90;;;;;;4996005;28;20390;-43
2023/09/18 13:26:02;;;;;;;;;;;21.90;99.90;;;;;;4995838;28;19922;-43
2023/09/18 13:28:30;;;;;;;;;;;22.00;99.90;;;;;;4995729;28;19922;-43
2023/09/18 13:30:56;;;;;;;;;;;22.10;99.90;;;;;;4995643;28;20395;-44
2023/09/18 13:33:23;;;;;;;;;;;22.10;99.90;;;;;;4995549;28;19925;-43
2023/09/18 13:35:49;;;;;;;;;;;22.20;99.90;;;;;;4995747;28;19922;-43
2023/09/18 13:38:14;;;;;;;;;;;22.20;99.90;;;;;;4995726;28;19921;-44
2023/09/18 13:40:41;;;;;;;;;;;22.20;99.90;;;;;;4995629;28;20367;-44
2023/09/18 13:43:08;;;;;;;;;;;22.20;99.90;;;;;;4995552;28;20046;-44
2023/09/18 13:45:37;;;;;;;;;;;22.30;99.90;;;;;;4995261;28;20513;-43
2023/09/18 13:48:03;;;;;;;;;;;22.30;99.90;;;;;;4995216;28;19921;-44
2023/09/18 13:50:29;;;;;;;;;;;22.30;99.90;;;;;;4995681;28;19921;-44
2023/09/18 13:52:55;;;;;;;;;;;22.30;99.90;;;;;;4995313;28;19944;-43
2023/09/18 13:55:20;;;;;;;;;;;22.30;99.90;;;;;;4995211;28;19922;-44
2023/09/18 13:57:47;;;;;;;;;;;22.20;99.90;;;;;;4995337;28;19928;-44
2023/09/18 14:00:13;;;;;;;;;;;22.20;99.90;;;;;;4995251;28;19921;-43
2023/09/18 14:02:39;;;;;;;;;;;22.20;99.90;;;;;;4994191;28;19922;-44
2023/09/18 14:05:06;;;;;;;;;;;22.00;99.90;;;;;;4995211;28;20401;-43
2023/09/18 14:07:31;;;;;;;;;;;21.90;99.90;;;;;;4995062;28;19928;-43
2023/09/18 14:09:58;;;;;;;;;;;21.80;99.90;;;;;;4995185;28;20349;-44
2023/09/18 14:12:24;;;;;;;;;;;21.80;99.90;;;;;;4978094;28;19922;-43
2023/09/18 14:14:50;;;;;;;;;;;21.80;99.90;;;;;;4994842;28;19921;-43